Terminal Aerodrome Forecast
Issued by NWS Albany, NY

Home | Current Version | Previous Version | Text Only | Print | Product List | Glossary On
Versions: 1 2 3 4 5 6 7 8 9 10 11 12 13 14 15 16 17 18 19 20 21 22 23 24 25 26
000
FTUS41 KALY 251700
TAFPOU
TAF
KPOU 251730Z 2518/2618 29010G15KT P6SM SCT050
     FM260000 36004KT P6SM BKN200
     FM260900 01005KT P6SM BKN060 OVC100
     FM261200 03006KT 3SM -SN OVC050
     FM261500 05008KT 1SM -SN OVC020=

USA.gov is the U.S. government's official web portal to all federal, state and local government web resources and services.